Hyundai Forward — 3EJY9 — position and weather

sailwx.info

Track history (hours):
 
Tides and Currents Weather Stations Pressure Air Temp Water Temp Dewpoint Dewpoint Depression Visibility Wind Speed Wind Dir Waves Ship Positions

Hyundai Forward

Last reported at 2016-Sep-25 09:33 UTC. Time now 2016-Sep-30 06:39 UTC.
Position N 35°40' W 129°21'.

Length 295 m; draft 9.5 m.

Type: Cargo ship. MMSI: 372652000.

Date/timePositionNaut miles runAvg speedWind from/ knotsBaromVisibWave heightAir tempDewpointWater temp
2016-Sep-25 09:33N 35°40' W 129°21'2713.7
2016-Sep-25 07:33N 35°30' W 128°49'4013.4
2016-Sep-25 04:33N 35°17' W 128°03'5413.4
2016-Sep-25 00:33N 34°58' W 127°01'2613.2
2016-Sep-24 22:33N 34°49' W 126°31'1413.1
2016-Sep-24 21:27N 34°44' W 126°15'3913.4
2016-Sep-24 18:33N 34°30' W 125°30'20413.6
2016-Sep-24 03:33N 34°26' W 121°23'1313.0
2016-Sep-24 02:33N 34°26' W 121°07'1313.1
2016-Sep-24 01:33N 34°26' W 120°51'1313.4
2016-Sep-24 00:33N 34°23' W 120°36'6112.2
2016-Sep-23 19:33N 34°06' W 119°24'2610.4
2016-Sep-23 17:05N 33°55' W 118°56'610.7
2016-Sep-23 16:33N 33°52' W 118°50'1210.7
2016-Sep-23 15:28N 33°47' W 118°38'2210.1
2016-Sep-23 13:15N 33°39' W 118°13'6 0.9
2016-Sep-23 06:30N 33°45' W 118°14'0 0.0
2016-Sep-23 04:30N 33°45' W 118°14'0 0.0
2016-Sep-23 03:24N 33°45' W 118°14'0 0.0
2016-Sep-23 02:33N 33°45' W 118°14'0 0.0
2016-Sep-23 01:12N 33°45' W 118°14'0 0.0
2016-Sep-23 00:27N 33°45' W 118°14'2 0.1
2016-Sep-22 12:33N 33°44' W 118°13'2 0.2
2016-Sep-22 04:28N 33°44' W 118°16'0 0.0
2016-Sep-22 03:28N 33°44' W 118°16'0 0.0
2016-Sep-22 00:31N 33°44' W 118°16'0 0.0
2016-Sep-21 23:31N 33°44' W 118°16'0 0.0
2016-Sep-21 22:31N 33°44' W 118°16'0 0.0
2016-Sep-21 19:31N 33°44' W 118°16'0 0.0
2016-Sep-21 16:22N 33°44' W 118°16'0 0.0
2016-Sep-21 09:31N 33°44' W 118°16'0 0.0
2016-Sep-21 08:04N 33°44' W 118°16'0 0.0
2016-Sep-21 03:31N 33°44' W 118°16'30 3.0
2016-Sep-20 17:34N 33°50' W 118°51'14620.5
2016-Sep-20 10:28N 34°34' W 121°39'4624.1
2016-Sep-20 08:33N 34°48' W 122°32'2423.8
2016-Sep-20 07:33N 34°55' W 122°60'2323.5
2016-Sep-20 06:33N 35°02' W 123°27'9423.5
2016-Sep-20 02:33N 35°32' W 125°17'7623.2
2016-Sep-19 23:17N 35°56' W 126°45'  
Track history (hours):
 
Tides and Currents Weather Stations Pressure Air Temp Water Temp Dewpoint Dewpoint Depression Visibility Wind Speed Wind Dir Waves Ship Positions

Hyundai Forward

Last reported at 2016-Sep-25 09:33 UTC. Time now 2016-Sep-30 06:39 UTC.
Position N 35°40' W 129°21'.

Length 295 m; draft 9.5 m.

Type: Cargo ship. MMSI: 372652000.

Date/timePositionNaut miles runAvg speedWind from/ knotsBaromVisibWave heightAir tempDewpointWater temp
2016-Sep-25 09:33N 35°40' W 129°21'2713.7
2016-Sep-25 07:33N 35°30' W 128°49'4013.4
2016-Sep-25 04:33N 35°17' W 128°03'5413.4
2016-Sep-25 00:33N 34°58' W 127°01'2613.2
2016-Sep-24 22:33N 34°49' W 126°31'1413.1
2016-Sep-24 21:27N 34°44' W 126°15'3913.4
2016-Sep-24 18:33N 34°30' W 125°30'20413.6
2016-Sep-24 03:33N 34°26' W 121°23'1313.0
2016-Sep-24 02:33N 34°26' W 121°07'1313.1
2016-Sep-24 01:33N 34°26' W 120°51'1313.4
2016-Sep-24 00:33N 34°23' W 120°36'6112.2
2016-Sep-23 19:33N 34°06' W 119°24'2610.4
2016-Sep-23 17:05N 33°55' W 118°56'610.7
2016-Sep-23 16:33N 33°52' W 118°50'1210.7
2016-Sep-23 15:28N 33°47' W 118°38'2210.1
2016-Sep-23 13:15N 33°39' W 118°13'6 0.9
2016-Sep-23 06:30N 33°45' W 118°14'0 0.0
2016-Sep-23 04:30N 33°45' W 118°14'0 0.0
2016-Sep-23 03:24N 33°45' W 118°14'0 0.0
2016-Sep-23 02:33N 33°45' W 118°14'0 0.0
2016-Sep-23 01:12N 33°45' W 118°14'0 0.0
2016-Sep-23 00:27N 33°45' W 118°14'2 0.1
2016-Sep-22 12:33N 33°44' W 118°13'2 0.2
2016-Sep-22 04:28N 33°44' W 118°16'0 0.0
2016-Sep-22 03:28N 33°44' W 118°16'0 0.0
2016-Sep-22 00:31N 33°44' W 118°16'0 0.0
2016-Sep-21 23:31N 33°44' W 118°16'0 0.0
2016-Sep-21 22:31N 33°44' W 118°16'0 0.0
2016-Sep-21 19:31N 33°44' W 118°16'0 0.0
2016-Sep-21 16:22N 33°44' W 118°16'0 0.0
2016-Sep-21 09:31N 33°44' W 118°16'0 0.0
2016-Sep-21 08:04N 33°44' W 118°16'0 0.0
2016-Sep-21 03:31N 33°44' W 118°16'30 3.0
2016-Sep-20 17:34N 33°50' W 118°51'14620.5
2016-Sep-20 10:28N 34°34' W 121°39'4624.1
2016-Sep-20 08:33N 34°48' W 122°32'2423.8
2016-Sep-20 07:33N 34°55' W 122°60'2323.5
2016-Sep-20 06:33N 35°02' W 123°27'9423.5
2016-Sep-20 02:33N 35°32' W 125°17'7623.2
2016-Sep-19 23:17N 35°56' W 126°45'  

Dump ship's entire track history